Time;durP1;ratioP1;P1;durP2;ratioP2;P2;SDS_P1;SDS_P2;PMS_P1;PMS_P2;Temp;Humidity;BMP_temperature;BMP_pressure;BME280_temperature;BME280_humidity;BME280_pressure;Samples;Min_cycle;Max_cycle;Signal;HPM_P1;HPM_P2
2021/06/18 00:01:36;;;;;;;1.20;1.20;;;;;;;;;;5114415;28;20180;-87
2021/06/18 00:04:04;;;;;;;1.33;1.23;;;;;;;;;;5110453;28;20227;-87
2021/06/18 00:06:31;;;;;;;1.50;1.40;;;;;;;;;;5093762;28;20196;-87
2021/06/18 00:09:01;;;;;;;1.00;1.00;;;;;;;;;;5093734;28;20232;-87
2021/06/18 00:11:29;;;;;;;1.48;1.38;;;;;;;;;;5094018;28;20270;-87
2021/06/18 00:13:58;;;;;;;0.95;0.95;;;;;;;;;;5093599;28;20205;-87
2021/06/18 00:16:25;;;;;;;1.42;1.33;;;;;;;;;;5093731;28;20212;-88
2021/06/18 00:18:55;;;;;;;1.23;1.20;;;;;;;;;;5098593;28;20231;-87
2021/06/18 00:21:24;;;;;;;1.40;1.35;;;;;;;;;;5113962;28;20180;-86
2021/06/18 00:23:52;;;;;;;1.20;1.20;;;;;;;;;;5114338;28;20191;-86
2021/06/18 00:26:21;;;;;;;1.92;1.30;;;;;;;;;;5114814;28;20267;-87
2021/06/18 00:28:48;;;;;;;1.60;1.50;;;;;;;;;;5114501;28;20306;-87
2021/06/18 00:31:18;;;;;;;1.35;1.33;;;;;;;;;;5114058;28;20590;-88
2021/06/18 00:33:48;;;;;;;1.50;1.40;;;;;;;;;;5114208;28;20302;-88
2021/06/18 00:36:15;;;;;;;2.03;1.92;;;;;;;;;;5114375;28;20192;-87
2021/06/18 00:38:44;;;;;;;1.20;1.20;;;;;;;;;;5113872;28;20228;-87
2021/06/18 00:41:11;;;;;;;1.52;1.48;;;;;;;;;;5114590;28;20187;-87
2021/06/18 00:43:38;;;;;;;1.15;1.15;;;;;;;;;;5114220;28;20199;-87
2021/06/18 00:46:09;;;;;;;1.10;1.10;;;;;;;;;;5108392;28;20656;-87
2021/06/18 00:48:40;;;;;;;1.20;1.20;;;;;;;;;;5111543;28;20564;-87
2021/06/18 00:51:08;;;;;;;1.20;1.20;;;;;;;;;;5113519;28;20241;-87
2021/06/18 00:53:37;;;;;;;1.65;1.55;;;;;;;;;;5099803;28;20289;-87
2021/06/18 00:56:05;;;;;;;1.20;1.20;;;;;;;;;;5107010;28;20184;-86
2021/06/18 00:58:33;;;;;;;1.40;1.40;;;;;;;;;;5099478;28;20688;-86
2021/06/18 01:01:02;;;;;;;1.75;1.65;;;;;;;;;;5108741;28;20220;-87
2021/06/18 01:03:30;;;;;;;1.52;1.42;;;;;;;;;;5112792;28;20187;-86
2021/06/18 01:06:38;;;;;;;1.70;1.60;;;;;;;;;;5107568;28;20298;-87
2021/06/18 01:09:10;;;;;;;1.50;1.40;;;;;;;;;;5086334;28;20257;-87
2021/06/18 01:11:44;;;;;;;1.52;1.42;;;;;;;;;;5099535;28;20200;-86
2021/06/18 01:14:18;;;;;;;1.50;1.40;;;;;;;;;;5101146;28;20203;-87
2021/06/18 01:16:49;;;;;;;1.50;1.40;;;;;;;;;;5097697;28;20184;-87
2021/06/18 01:19:22;;;;;;;1.70;1.60;;;;;;;;;;5104151;28;20220;-86
2021/06/18 01:21:56;;;;;;;1.63;1.52;;;;;;;;;;5106584;28;20185;-87
2021/06/18 01:24:37;;;;;;;1.25;1.25;;;;;;;;;;5096790;28;20188;-87
2021/06/18 01:27:42;;;;;;;1.73;1.63;;;;;;;;;;5103671;28;20191;-87
2021/06/18 01:30:15;;;;;;;1.58;1.48;;;;;;;;;;5101182;28;20200;-87
2021/06/18 01:32:45;;;;;;;1.70;1.60;;;;;;;;;;5108845;28;20188;-85
2021/06/18 01:35:16;;;;;;;1.70;1.60;;;;;;;;;;5108799;28;20204;-87
2021/06/18 01:37:45;;;;;;;2.42;2.25;;;;;;;;;;5092219;28;20242;-87
2021/06/18 01:40:15;;;;;;;1.92;1.83;;;;;;;;;;5104443;28;20191;-87
2021/06/18 01:42:51;;;;;;;1.67;1.58;;;;;;;;;;5112441;28;20204;-87
2021/06/18 01:45:22;;;;;;;2.00;1.90;;;;;;;;;;5112798;28;20180;-87
2021/06/18 01:47:50;;;;;;;1.60;1.50;;;;;;;;;;5112770;28;20288;-87
2021/06/18 01:50:22;;;;;;;1.33;1.30;;;;;;;;;;5111403;28;20275;-86
2021/06/18 01:52:54;;;;;;;1.70;1.60;;;;;;;;;;5092956;28;20192;-87
2021/06/18 01:55:26;;;;;;;1.95;1.85;;;;;;;;;;5112968;28;20214;-87
2021/06/18 01:57:57;;;;;;;1.85;1.75;;;;;;;;;;5111143;28;20281;-87
2021/06/18 02:00:27;;;;;;;1.75;1.65;;;;;;;;;;5110057;28;20188;-86
2021/06/18 02:03:12;;;;;;;2.05;1.77;;;;;;;;;;5106339;28;20710;-87
2021/06/18 02:05:40;;;;;;;6.38;2.05;;;;;;;;;;5099853;28;20189;-87
2021/06/18 02:08:09;;;;;;;1.90;1.80;;;;;;;;;;5101923;28;20216;-87
2021/06/18 02:10:41;;;;;;;1.98;1.88;;;;;;;;;;5101565;28;20256;-86
2021/06/18 02:13:11;;;;;;;2.22;1.98;;;;;;;;;;5099644;28;20675;-87
2021/06/18 02:15:44;;;;;;;2.10;2.00;;;;;;;;;;5099333;28;20211;-86
2021/06/18 02:18:13;;;;;;;1.67;1.58;;;;;;;;;;5116323;28;20223;-87
2021/06/18 02:20:42;;;;;;;1.95;1.85;;;;;;;;;;5113774;28;20200;-87
2021/06/18 02:23:10;;;;;;;1.90;1.80;;;;;;;;;;5097375;28;20188;-85
2021/06/18 02:25:46;;;;;;;2.03;1.92;;;;;;;;;;5107432;28;20184;-87
2021/06/18 02:28:15;;;;;;;1.85;1.75;;;;;;;;;;5115586;28;20215;-86
2021/06/18 02:30:45;;;;;;;2.63;2.42;;;;;;;;;;5106528;28;20196;-87
2021/06/18 02:33:14;;;;;;;2.33;2.13;;;;;;;;;;5098436;28;20187;-86
2021/06/18 02:35:43;;;;;;;2.58;2.45;;;;;;;;;;5099838;28;20215;-87
2021/06/18 02:38:13;;;;;;;2.47;2.28;;;;;;;;;;5097808;28;20605;-87
2021/06/18 02:40:44;;;;;;;2.55;2.35;;;;;;;;;;5097823;28;20643;-86
2021/06/18 02:43:12;;;;;;;2.40;2.30;;;;;;;;;;5105702;28;20194;-87
2021/06/18 02:45:41;;;;;;;2.33;2.22;;;;;;;;;;5108459;28;20276;-86
2021/06/18 02:48:17;;;;;;;2.58;2.38;;;;;;;;;;5112660;28;20216;-87
2021/06/18 02:50:52;;;;;;;1.75;1.65;;;;;;;;;;5117685;28;20192;-86
2021/06/18 02:53:25;;;;;;;2.20;2.10;;;;;;;;;;5117955;28;20198;-86
2021/06/18 02:55:57;;;;;;;1.98;1.88;;;;;;;;;;5116599;28;20208;-87
2021/06/18 02:58:37;;;;;;;1.70;1.60;;;;;;;;;;5109867;28;20239;-89
2021/06/18 03:01:13;;;;;;;2.42;2.22;;;;;;;;;;5111347;28;20555;-89
2021/06/18 03:04:34;;;;;;;2.05;1.80;;;;;;;;;;5110114;28;20207;-87
2021/06/18 03:07:08;;;;;;;1.92;1.83;;;;;;;;;;5114347;28;20196;-88
2021/06/18 03:09:40;;;;;;;1.80;1.70;;;;;;;;;;5095350;22;20228;-87
2021/06/18 03:12:11;;;;;;;1.77;1.67;;;;;;;;;;5073280;28;20579;-87
2021/06/18 03:14:39;;;;;;;1.55;1.45;;;;;;;;;;5073314;28;20694;-88
2021/06/18 03:17:10;;;;;;;1.27;1.27;;;;;;;;;;5073087;28;20208;-88
2021/06/18 03:19:43;;;;;;;1.88;1.77;;;;;;;;;;5073830;28;20225;-87
2021/06/18 03:22:12;;;;;;;1.65;1.55;;;;;;;;;;5074485;28;20193;-87
2021/06/18 03:24:40;;;;;;;1.55;1.45;;;;;;;;;;5073986;28;20181;-88
2021/06/18 03:27:08;;;;;;;1.75;1.65;;;;;;;;;;5073519;28;20209;-88
2021/06/18 03:29:36;;;;;;;2.03;1.92;;;;;;;;;;5072806;28;20706;-88
2021/06/18 03:32:08;;;;;;;1.70;1.60;;;;;;;;;;5073825;28;20709;-88
2021/06/18 03:34:35;;;;;;;1.55;1.45;;;;;;;;;;5074208;28;20209;-89
2021/06/18 03:37:05;;;;;;;2.08;1.98;;;;;;;;;;5073589;28;20283;-88
2021/06/18 03:39:32;;;;;;;1.70;1.55;;;;;;;;;;5074170;28;20233;-88
2021/06/18 03:42:00;;;;;;;1.73;1.63;;;;;;;;;;5073720;28;20201;-87
2021/06/18 03:44:28;;;;;;;1.77;1.67;;;;;;;;;;5074195;28;20192;-87
2021/06/18 03:46:56;;;;;;;1.70;1.60;;;;;;;;;;5073754;28;20189;-88
2021/06/18 03:49:25;;;;;;;1.60;1.50;;;;;;;;;;5073876;28;20600;-87
2021/06/18 03:51:53;;;;;;;1.75;1.65;;;;;;;;;;5073508;28;20674;-88
2021/06/18 03:54:23;;;;;;;1.88;1.77;;;;;;;;;;5073587;28;20681;-87
2021/06/18 03:56:51;;;;;;;1.98;1.88;;;;;;;;;;5074017;28;20201;-88
2021/06/18 03:59:19;;;;;;;1.75;1.65;;;;;;;;;;5073719;28;20228;-88
2021/06/18 04:01:51;;;;;;;1.90;1.80;;;;;;;;;;5073691;28;20235;-88
2021/06/18 04:04:20;;;;;;;2.00;1.90;;;;;;;;;;5073745;28;20545;-88
2021/06/18 04:06:48;;;;;;;1.90;1.80;;;;;;;;;;5073311;28;20357;-88
2021/06/18 04:09:16;;;;;;;2.10;2.00;;;;;;;;;;5072957;28;20240;-88
2021/06/18 04:11:45;;;;;;;1.63;1.50;;;;;;;;;;5072907;28;20193;-88
2021/06/18 04:14:13;;;;;;;1.23;1.20;;;;;;;;;;5073045;28;20192;-88
2021/06/18 04:16:40;;;;;;;1.95;1.85;;;;;;;;;;5072731;28;20299;-87
2021/06/18 04:19:09;;;;;;;1.50;1.40;;;;;;;;;;5072810;28;20221;-87
2021/06/18 04:21:38;;;;;;;1.40;1.30;;;;;;;;;;5072239;28;20185;-88
2021/06/18 04:24:08;;;;;;;1.50;1.40;;;;;;;;;;5072717;28;20195;-87
2021/06/18 04:26:35;;;;;;;1.60;1.50;;;;;;;;;;5071996;28;20192;-88
2021/06/18 04:29:04;;;;;;;1.65;1.55;;;;;;;;;;5073904;28;20221;-88
2021/06/18 04:31:31;;;;;;;1.75;1.65;;;;;;;;;;5072217;28;20564;-88
2021/06/18 04:33:59;;;;;;;2.63;2.42;;;;;;;;;;5071944;28;20217;-88
2021/06/18 04:36:26;;;;;;;2.28;2.17;;;;;;;;;;5071747;28;20698;-87
2021/06/18 04:38:54;;;;;;;2.40;2.20;;;;;;;;;;5072066;28;20221;-88
2021/06/18 04:41:21;;;;;;;2.90;2.70;;;;;;;;;;5071026;28;20659;-88
2021/06/18 04:43:48;;;;;;;2.30;2.20;;;;;;;;;;5071794;28;20212;-88
2021/06/18 04:46:17;;;;;;;2.80;2.60;;;;;;;;;;5071662;28;20207;-88
2021/06/18 04:48:44;;;;;;;3.20;3.00;;;;;;;;;;5071055;28;20710;-87
2021/06/18 04:51:12;;;;;;;2.83;2.63;;;;;;;;;;5072009;28;20188;-86
2021/06/18 04:53:39;;;;;;;2.90;2.70;;;;;;;;;;5071910;28;20698;-88
2021/06/18 04:56:07;;;;;;;2.70;2.50;;;;;;;;;;5071323;28;20201;-87
2021/06/18 04:58:34;;;;;;;2.80;2.60;;;;;;;;;;5071543;28;20221;-87
2021/06/18 05:01:01;;;;;;;3.38;3.10;;;;;;;;;;5072112;28;20181;-87
2021/06/18 05:03:30;;;;;;;2.55;2.45;;;;;;;;;;5070896;28;20201;-87
2021/06/18 05:05:58;;;;;;;2.45;2.35;;;;;;;;;;5070645;28;20197;-87
2021/06/18 05:08:25;;;;;;;2.92;2.72;;;;;;;;;;5071302;28;20235;-88
2021/06/18 05:10:53;;;;;;;2.95;2.75;;;;;;;;;;5071583;28;20205;-87
2021/06/18 05:13:20;;;;;;;2.28;2.17;;;;;;;;;;5071519;28;20185;-88
2021/06/18 05:15:48;;;;;;;3.00;2.80;;;;;;;;;;5071273;28;20217;-88
2021/06/18 05:18:15;;;;;;;3.60;3.20;;;;;;;;;;5071554;28;20192;-87
2021/06/18 05:20:45;;;;;;;3.30;3.10;;;;;;;;;;5073236;28;20197;-88
2021/06/18 05:23:12;;;;;;;3.50;3.22;;;;;;;;;;5071866;28;20677;-88
2021/06/18 05:25:40;;;;;;;3.35;3.05;;;;;;;;;;5072557;28;20197;-89
2021/06/18 05:28:07;;;;;;;3.15;2.95;;;;;;;;;;5071715;28;20197;-88
2021/06/18 05:30:35;;;;;;;2.92;2.72;;;;;;;;;;5072861;28;20196;-87
2021/06/18 05:33:02;;;;;;;3.40;3.10;;;;;;;;;;5073124;28;20196;-87
2021/06/18 05:35:29;;;;;;;3.88;3.58;;;;;;;;;;5073198;28;20177;-88
2021/06/18 05:37:58;;;;;;;3.83;3.63;;;;;;;;;;5073020;28;20583;-87
2021/06/18 05:40:26;;;;;;;4.50;4.20;;;;;;;;;;5073695;28;20225;-87
2021/06/18 05:42:53;;;;;;;4.45;4.07;;;;;;;;;;5072117;28;20201;-87
2021/06/18 05:45:20;;;;;;;3.80;3.50;;;;;;;;;;5072614;28;20205;-89
2021/06/18 05:47:48;;;;;;;3.65;3.45;;;;;;;;;;5073096;28;20700;-87
2021/06/18 05:50:16;;;;;;;3.38;3.17;;;;;;;;;;5072270;28;20231;-87
2021/06/18 05:52:43;;;;;;;3.78;3.58;;;;;;;;;;5072250;28;20177;-88
2021/06/18 05:55:12;;;;;;;3.53;3.30;;;;;;;;;;5072681;28;20284;-88
2021/06/18 05:57:42;;;;;;;3.72;3.53;;;;;;;;;;5072590;28;20591;-87
2021/06/18 06:00:11;;;;;;;3.75;3.45;;;;;;;;;;5072160;28;20217;-88
2021/06/18 06:02:38;;;;;;;3.33;3.13;;;;;;;;;;5071725;28;20201;-87
2021/06/18 06:05:07;;;;;;;3.70;3.50;;;;;;;;;;5072415;28;20589;-88
2021/06/18 06:07:34;;;;;;;3.28;3.00;;;;;;;;;;5071824;28;20212;-87
2021/06/18 06:10:02;;;;;;;3.65;3.35;;;;;;;;;;5071418;28;20252;-88
2021/06/18 06:12:31;;;;;;;3.50;3.20;;;;;;;;;;5072380;28;20185;-88
2021/06/18 06:14:59;;;;;;;4.28;3.97;;;;;;;;;;5072963;28;20188;-87
2021/06/18 06:17:26;;;;;;;3.25;3.05;;;;;;;;;;5073938;28;20230;-87
2021/06/18 06:19:54;;;;;;;3.33;3.10;;;;;;;;;;5073565;28;20244;-87
2021/06/18 06:22:21;;;;;;;4.45;4.15;;;;;;;;;;5073008;28;20184;-88
2021/06/18 06:24:48;;;;;;;4.15;3.85;;;;;;;;;;5072529;28;20181;-87
2021/06/18 06:27:16;;;;;;;3.47;3.28;;;;;;;;;;5072591;28;20196;-88
2021/06/18 06:29:45;;;;;;;4.35;4.05;;;;;;;;;;5071974;28;20599;-88
2021/06/18 06:32:12;;;;;;;4.47;4.05;;;;;;;;;;5071371;28;20209;-88
2021/06/18 06:34:39;;;;;;;4.93;4.53;;;;;;;;;;5071862;28;20204;-87
2021/06/18 06:37:07;;;;;;;4.22;3.92;;;;;;;;;;5071781;28;20251;-88
2021/06/18 06:39:34;;;;;;;4.35;4.05;;;;;;;;;;5071921;28;20217;-87
2021/06/18 06:42:04;;;;;;;5.43;3.20;;;;;;;;;;5071615;28;20600;-87
2021/06/18 06:44:31;;;;;;;2.95;2.75;;;;;;;;;;5072047;28;20205;-87
2021/06/18 06:47:00;;;;;;;3.45;3.20;;;;;;;;;;5077765;28;20272;-87
2021/06/18 06:49:28;;;;;;;3.40;3.20;;;;;;;;;;5080311;28;20240;-87
2021/06/18 06:51:55;;;;;;;3.70;3.40;;;;;;;;;;5081177;28;20250;-86
2021/06/18 06:54:25;;;;;;;3.25;3.05;;;;;;;;;;5080867;28;20275;-87
2021/06/18 06:56:53;;;;;;;2.83;2.63;;;;;;;;;;5081734;28;20231;-86
2021/06/18 06:59:21;;;;;;;4.18;3.88;;;;;;;;;;5079826;28;20251;-87
2021/06/18 07:01:49;;;;;;;3.65;3.35;;;;;;;;;;5082286;28;20185;-87
2021/06/18 07:04:17;;;;;;;3.58;3.28;;;;;;;;;;5082286;28;20754;-87
2021/06/18 07:06:45;;;;;;;3.95;3.65;;;;;;;;;;5085896;28;20185;-86
2021/06/18 07:09:14;;;;;;;3.83;3.53;;;;;;;;;;5086033;28;20256;-86
2021/06/18 07:11:41;;;;;;;2.60;2.45;;;;;;;;;;5085648;28;20516;-86
2021/06/18 07:14:09;;;;;;;4.50;2.72;;;;;;;;;;5085887;28;20205;-86
2021/06/18 07:16:36;;;;;;;2.92;2.70;;;;;;;;;;5085638;28;20714;-86
2021/06/18 07:19:04;;;;;;;2.45;2.33;;;;;;;;;;5085706;28;20292;-86
2021/06/18 07:21:32;;;;;;;2.80;2.60;;;;;;;;;;5086428;28;20264;-86
2021/06/18 07:24:00;;;;;;;3.38;3.17;;;;;;;;;;5085207;28;20208;-86
2021/06/18 07:26:29;;;;;;;3.80;3.50;;;;;;;;;;5085081;28;20200;-86
2021/06/18 07:28:56;;;;;;;3.30;3.00;;;;;;;;;;5084623;28;20232;-87
2021/06/18 07:31:24;;;;;;;3.15;2.95;;;;;;;;;;5085246;28;20248;-86
2021/06/18 07:33:51;;;;;;;3.90;3.60;;;;;;;;;;5084957;28;20269;-86
2021/06/18 07:36:18;;;;;;;3.53;3.33;;;;;;;;;;5085863;28;20181;-86
2021/06/18 07:38:48;;;;;;;4.15;3.75;;;;;;;;;;5084697;28;20221;-86
2021/06/18 07:41:16;;;;;;;4.47;4.07;;;;;;;;;;5086404;28;20185;-86
2021/06/18 07:43:43;;;;;;;3.80;3.50;;;;;;;;;;5084347;28;20204;-86
2021/06/18 07:46:10;;;;;;;4.10;3.85;;;;;;;;;;5086478;28;20185;-86
2021/06/18 07:48:38;;;;;;;4.35;4.05;;;;;;;;;;5085289;28;20225;-86
2021/06/18 07:51:06;;;;;;;3.75;3.45;;;;;;;;;;5086180;28;20261;-86
2021/06/18 07:53:33;;;;;;;3.67;3.38;;;;;;;;;;5088448;28;20240;-87
2021/06/18 07:56:05;;;;;;;3.00;2.80;;;;;;;;;;5085065;28;20253;-85
2021/06/18 07:58:32;;;;;;;3.40;3.08;;;;;;;;;;5086140;28;20264;-85
2021/06/18 08:01:00;;;;;;;2.55;2.35;;;;;;;;;;5085564;28;20195;-85
2021/06/18 08:03:27;;;;;;;3.00;2.80;;;;;;;;;;5085212;28;20220;-86
2021/06/18 08:05:55;;;;;;;3.70;3.20;;;;;;;;;;5086009;28;20192;-85
2021/06/18 08:08:22;;;;;;;3.47;3.25;;;;;;;;;;5085624;28;20739;-86
2021/06/18 08:10:49;;;;;;;3.33;2.92;;;;;;;;;;5084227;28;20219;-86
2021/06/18 08:13:18;;;;;;;3.50;3.30;;;;;;;;;;5085163;28;20215;-85
2021/06/18 08:15:46;;;;;;;3.35;3.15;;;;;;;;;;5084908;28;20215;-86
2021/06/18 08:18:13;;;;;;;4.05;3.75;;;;;;;;;;5084694;28;20205;-85
2021/06/18 08:20:40;;;;;;;3.90;3.60;;;;;;;;;;5085167;28;20181;-86
2021/06/18 08:23:08;;;;;;;3.17;2.88;;;;;;;;;;5084241;28;20219;-85
2021/06/18 08:25:35;;;;;;;3.60;3.40;;;;;;;;;;5083993;28;20183;-85
2021/06/18 08:28:03;;;;;;;4.32;3.92;;;;;;;;;;5085079;28;20201;-86
2021/06/18 08:30:31;;;;;;;3.63;3.38;;;;;;;;;;5083470;28;20207;-86
2021/06/18 08:32:59;;;;;;;3.55;3.25;;;;;;;;;;5084985;28;20201;-85
2021/06/18 08:35:30;;;;;;;3.17;2.97;;;;;;;;;;5084428;28;20201;-85
2021/06/18 08:38:01;;;;;;;3.20;3.00;;;;;;;;;;5085038;28;20217;-86
2021/06/18 08:40:30;;;;;;;3.28;3.08;;;;;;;;;;5084570;28;20204;-85
2021/06/18 08:42:57;;;;;;;3.63;3.42;;;;;;;;;;5082768;28;20204;-86
2021/06/18 08:45:26;;;;;;;4.00;3.70;;;;;;;;;;5083335;28;20240;-85
2021/06/18 08:47:54;;;;;;;3.03;2.83;;;;;;;;;;5084064;28;20558;-85
2021/06/18 08:50:25;;;;;;;3.08;2.88;;;;;;;;;;5082990;28;20220;-86
2021/06/18 08:52:54;;;;;;;5.15;4.75;;;;;;;;;;5084452;28;20189;-86
2021/06/18 08:55:24;;;;;;;3.20;3.00;;;;;;;;;;5084100;28;20212;-85
2021/06/18 08:57:52;;;;;;;2.65;2.45;;;;;;;;;;5084218;28;20205;-86
2021/06/18 09:00:22;;;;;;;3.53;3.33;;;;;;;;;;5082250;28;20217;-86
2021/06/18 09:02:49;;;;;;;3.47;3.17;;;;;;;;;;5082774;28;20203;-86
2021/06/18 09:05:21;;;;;;;3.65;2.90;;;;;;;;;;5082074;28;20662;-85
2021/06/18 09:08:02;;;;;;;2.83;2.70;;;;;;;;;;5081586;28;20207;-85
2021/06/18 09:10:40;;;;;;;2.70;2.50;;;;;;;;;;5074128;28;20205;-85
2021/06/18 09:13:18;;;;;;;2.63;2.47;;;;;;;;;;5071034;28;20196;-85
2021/06/18 09:15:50;;;;;;;2.58;2.47;;;;;;;;;;5071478;28;20636;-86
2021/06/18 09:18:44;;;;;;;2.40;2.30;;;;;;;;;;5072173;28;20205;-86
2021/06/18 09:21:23;;;;;;;3.67;3.47;;;;;;;;;;5072012;28;20200;-85
2021/06/18 09:23:54;;;;;;;3.17;2.97;;;;;;;;;;5072396;28;20295;-85
2021/06/18 09:26:30;;;;;;;2.63;2.42;;;;;;;;;;5071445;28;20185;-86
2021/06/18 09:29:10;;;;;;;2.08;1.98;;;;;;;;;;5072043;28;20307;-85
2021/06/18 09:31:42;;;;;;;2.08;1.95;;;;;;;;;;5071670;28;20228;-86
2021/06/18 09:34:11;;;;;;;1.90;1.80;;;;;;;;;;5069974;28;20200;-85
2021/06/18 09:36:41;;;;;;;1.80;1.70;;;;;;;;;;5071008;28;20629;-85
2021/06/18 09:39:13;;;;;;;1.70;1.60;;;;;;;;;;5070956;28;20224;-85
2021/06/18 09:41:43;;;;;;;1.77;1.67;;;;;;;;;;5070766;28;20246;-85
2021/06/18 09:44:14;;;;;;;1.70;1.60;;;;;;;;;;5070700;28;20188;-86
2021/06/18 09:46:48;;;;;;;1.75;1.65;;;;;;;;;;5070838;28;20584;-85
2021/06/18 09:49:37;;;;;;;2.90;2.13;;;;;;;;;;5070494;28;20226;-85
2021/06/18 09:52:08;;;;;;;1.73;1.63;;;;;;;;;;5070517;28;20254;-85
2021/06/18 09:54:41;;;;;;;1.80;1.70;;;;;;;;;;5069711;28;20210;-85
2021/06/18 10:00:50;;;;;;;1.40;1.40;;;;;;;;;;5070113;28;20322;-85
2021/06/18 10:03:17;;;;;;;1.50;1.40;;;;;;;;;;5069885;28;20579;-85
2021/06/18 10:05:45;;;;;;;1.88;1.77;;;;;;;;;;5069768;28;20181;-84
2021/06/18 10:08:14;;;;;;;2.03;1.92;;;;;;;;;;5069449;28;20184;-85
2021/06/18 10:10:41;;;;;;;2.50;2.40;;;;;;;;;;5070109;28;20196;-85
2021/06/18 10:13:09;;;;;;;3.17;2.97;;;;;;;;;;5070005;28;20181;-85
2021/06/18 10:15:38;;;;;;;3.08;2.90;;;;;;;;;;5069176;28;20584;-85
2021/06/18 10:18:11;;;;;;;3.28;3.03;;;;;;;;;;5069774;28;20187;-84
2021/06/18 10:20:39;;;;;;;3.38;3.17;;;;;;;;;;5069209;28;20231;-85
2021/06/18 10:23:12;;;;;;;2.92;2.83;;;;;;;;;;5069281;28;20193;-84
2021/06/18 10:25:46;;;;;;;3.85;3.55;;;;;;;;;;5069547;28;20208;-85
2021/06/18 10:28:20;;;;;;;4.97;4.57;;;;;;;;;;5069541;28;20185;-85
2021/06/18 10:30:50;;;;;;;7.97;3.90;;;;;;;;;;5069613;28;20176;-85
2021/06/18 10:33:37;;;;;;;4.38;4.07;;;;;;;;;;5069930;28;20188;-85
2021/06/18 10:36:23;;;;;;;3.95;3.75;;;;;;;;;;5069719;28;20189;-84
2021/06/18 10:39:06;;;;;;;4.22;4.00;;;;;;;;;;5069694;28;20289;-85
2021/06/18 10:41:42;;;;;;;3.15;2.92;;;;;;;;;;5073228;28;20639;-84
2021/06/18 10:44:09;;;;;;;3.63;3.42;;;;;;;;;;5073204;28;20177;-85
2021/06/18 10:46:37;;;;;;;4.80;4.50;;;;;;;;;;5073454;28;20196;-85
2021/06/18 10:49:10;;;;;;;4.32;4.03;;;;;;;;;;5071372;28;20216;-85
2021/06/18 10:51:49;;;;;;;4.32;4.03;;;;;;;;;;5053181;28;20185;-85
2021/06/18 10:54:29;;;;;;;4.05;3.85;;;;;;;;;;5052880;28;20243;-86
2021/06/18 10:57:12;;;;;;;4.72;4.43;;;;;;;;;;5052936;28;20196;-85
2021/06/18 10:59:43;;;;;;;4.65;4.35;;;;;;;;;;5052597;28;20233;-85
2021/06/18 11:02:35;;;;;;;4.97;4.68;;;;;;;;;;5052690;28;20619;-86
2021/06/18 11:05:06;;;;;;;4.07;3.88;;;;;;;;;;5052866;28;20558;-86
2021/06/18 11:07:35;;;;;;;4.53;4.13;;;;;;;;;;5052483;28;20201;-85
2021/06/18 11:10:04;;;;;;;5.03;4.20;;;;;;;;;;5055825;28;20229;-86
2021/06/18 11:12:42;;;;;;;3.33;3.05;;;;;;;;;;5072542;28;20264;-85
2021/06/18 11:15:38;;;;;;;3.30;3.10;;;;;;;;;;5072538;28;20654;-85
2021/06/18 11:18:15;;;;;;;2.60;2.50;;;;;;;;;;5063934;28;20208;-86
2021/06/18 11:21:08;;;;;;;2.78;2.58;;;;;;;;;;5072492;28;20254;-86
2021/06/18 11:23:57;;;;;;;3.67;3.47;;;;;;;;;;5069281;28;20208;-85
2021/06/18 11:26:25;;;;;;;3.22;3.03;;;;;;;;;;5072550;28;20732;-86
2021/06/18 11:28:55;;;;;;;4.35;4.05;;;;;;;;;;5072075;28;20714;-84
2021/06/18 11:31:43;;;;;;;3.15;2.95;;;;;;;;;;5072378;28;20287;-85
2021/06/18 11:34:28;;;;;;;3.50;3.30;;;;;;;;;;5072780;28;20307;-85
2021/06/18 11:36:56;;;;;;;3.92;3.65;;;;;;;;;;5072325;28;20196;-85
2021/06/18 11:39:25;;;;;;;3.72;3.00;;;;;;;;;;5071936;28;20689;-86
2021/06/18 11:42:06;;;;;;;3.92;3.63;;;;;;;;;;5071822;28;20181;-84
2021/06/18 11:44:36;;;;;;;2.60;2.40;;;;;;;;;;5072079;28;20224;-85
2021/06/18 11:47:05;;;;;;;3.00;2.90;;;;;;;;;;5071997;28;20195;-85
2021/06/18 11:49:34;;;;;;;3.25;3.05;;;;;;;;;;5072323;28;20220;-85
2021/06/18 11:52:09;;;;;;;3.83;3.63;;;;;;;;;;5072341;28;20200;-87
2021/06/18 11:54:43;;;;;;;2.83;2.63;;;;;;;;;;5071737;28;20188;-87
2021/06/18 11:57:23;;;;;;;3.03;2.83;;;;;;;;;;5065765;28;20205;-86
2021/06/18 12:00:00;;;;;;;2.75;2.50;;;;;;;;;;5068370;28;20232;-87
2021/06/18 12:02:36;;;;;;;3.47;3.22;;;;;;;;;;5071370;28;20200;-88
2021/06/18 12:05:17;;;;;;;3.28;3.17;;;;;;;;;;5068523;28;20196;-87
2021/06/18 12:07:45;;;;;;;2.90;2.70;;;;;;;;;;5070900;28;20208;-87
2021/06/18 12:10:24;;;;;;;3.05;2.80;;;;;;;;;;5062738;28;20694;-86
2021/06/18 12:12:54;;;;;;;2.25;2.15;;;;;;;;;;5069370;28;20211;-88
2021/06/18 12:15:28;;;;;;;2.75;2.55;;;;;;;;;;5071299;28;20184;-87
2021/06/18 12:17:59;;;;;;;4.05;3.75;;;;;;;;;;5071516;28;20185;-90
2021/06/18 12:20:33;;;;;;;3.30;2.97;;;;;;;;;;5071547;28;20649;-88
2021/06/18 12:23:02;;;;;;;4.28;3.97;;;;;;;;;;5071446;28;20193;-87
2021/06/18 12:25:31;;;;;;;3.00;2.90;;;;;;;;;;5071356;28;20253;-88
2021/06/18 12:28:01;;;;;;;2.83;2.58;;;;;;;;;;5071343;28;20200;-87
2021/06/18 12:30:33;;;;;;;2.42;2.33;;;;;;;;;;5070996;28;20680;-86
2021/06/18 12:33:01;;;;;;;2.70;2.60;;;;;;;;;;5091417;28;20176;-84
2021/06/18 12:35:41;;;;;;;3.45;3.15;;;;;;;;;;5091431;28;20564;-84
2021/06/18 12:38:11;;;;;;;3.88;3.67;;;;;;;;;;5091135;28;20210;-86
2021/06/18 12:40:39;;;;;;;3.78;3.58;;;;;;;;;;5081973;28;20577;-85
2021/06/18 12:43:10;;;;;;;3.28;3.08;;;;;;;;;;5063442;28;20185;-85
2021/06/18 12:45:47;;;;;;;3.47;3.28;;;;;;;;;;5065321;28;20204;-86
2021/06/18 12:48:19;;;;;;;3.40;3.17;;;;;;;;;;5064814;28;20212;-85
2021/06/18 12:50:49;;;;;;;3.80;3.50;;;;;;;;;;5066079;28;20219;-86
2021/06/18 12:53:18;;;;;;;3.92;3.67;;;;;;;;;;5061453;28;20279;-87
2021/06/18 12:55:49;;;;;;;3.72;3.53;;;;;;;;;;5067548;28;20205;-86
2021/06/18 12:58:18;;;;;;;3.10;2.90;;;;;;;;;;5051190;28;20207;-86
2021/06/18 13:00:52;;;;;;;3.60;3.40;;;;;;;;;;5070603;28;20600;-86
2021/06/18 13:03:36;;;;;;;4.10;3.80;;;;;;;;;;5070003;28;20197;-86
2021/06/18 13:06:06;;;;;;;4.65;4.35;;;;;;;;;;5067719;28;20291;-86
2021/06/18 13:08:35;;;;;;;3.65;3.45;;;;;;;;;;5070431;28;20228;-86
2021/06/18 13:11:02;;;;;;;3.92;3.72;;;;;;;;;;5069268;28;20200;-86
2021/06/18 13:13:32;;;;;;;4.28;4.00;;;;;;;;;;5070265;28;20291;-86
2021/06/18 13:16:13;;;;;;;3.50;3.30;;;;;;;;;;5070611;28;20198;-86
2021/06/18 13:18:57;;;;;;;2.78;2.67;;;;;;;;;;5071310;28;20230;-86
2021/06/18 13:21:26;;;;;;;2.75;2.65;;;;;;;;;;5070456;28;20224;-86
2021/06/18 13:24:11;;;;;;;3.80;3.60;;;;;;;;;;5070010;28;20200;-86
2021/06/18 13:26:38;;;;;;;4.10;3.80;;;;;;;;;;5070012;28;20670;-86
2021/06/18 13:29:12;;;;;;;3.75;3.45;;;;;;;;;;5070417;28;20225;-86
2021/06/18 13:31:42;;;;;;;3.70;3.50;;;;;;;;;;5069822;28;20200;-86
2021/06/18 13:34:14;;;;;;;6.05;3.42;;;;;;;;;;5070458;28;20287;-86
2021/06/18 13:36:44;;;;;;;4.45;4.15;;;;;;;;;;5070311;28;20189;-86
2021/06/18 13:39:17;;;;;;;3.67;3.38;;;;;;;;;;5069829;28;20235;-86
2021/06/18 13:41:45;;;;;;;3.00;2.85;;;;;;;;;;5070304;28;20208;-86
2021/06/18 13:44:13;;;;;;;3.58;3.38;;;;;;;;;;5070525;28;20295;-86
2021/06/18 13:46:42;;;;;;;3.08;2.88;;;;;;;;;;5070005;28;20204;-85
2021/06/18 13:49:11;;;;;;;3.70;3.47;;;;;;;;;;5070078;28;20224;-86
2021/06/18 13:51:40;;;;;;;3.03;2.78;;;;;;;;;;5069796;28;20631;-86
2021/06/18 13:54:08;;;;;;;4.03;3.83;;;;;;;;;;5070134;28;20278;-86
2021/06/18 13:56:36;;;;;;;2.80;2.70;;;;;;;;;;5069811;28;20195;-85
2021/06/18 13:59:03;;;;;;;2.50;2.40;;;;;;;;;;5069969;28;20224;-86
2021/06/18 14:01:31;;;;;;;3.28;3.08;;;;;;;;;;5069733;28;20216;-86
2021/06/18 14:03:59;;;;;;;3.95;3.75;;;;;;;;;;5069832;28;20187;-86
2021/06/18 14:06:27;;;;;;;2.70;2.60;;;;;;;;;;5069611;28;20215;-86
2021/06/18 14:08:54;;;;;;;3.22;3.03;;;;;;;;;;5069651;28;20726;-86
2021/06/18 14:11:23;;;;;;;3.45;3.25;;;;;;;;;;5069500;28;20196;-86
2021/06/18 14:13:53;;;;;;;3.40;3.20;;;;;;;;;;5071812;28;20232;-86
2021/06/18 14:16:20;;;;;;;3.05;2.85;;;;;;;;;;5073990;28;20624;-85
2021/06/18 14:18:48;;;;;;;3.30;3.10;;;;;;;;;;5073914;28;20235;-86
2021/06/18 14:21:16;;;;;;;3.13;2.92;;;;;;;;;;5073651;28;20716;-86
2021/06/18 14:23:44;;;;;;;3.17;2.97;;;;;;;;;;5073527;28;20581;-86
2021/06/18 14:26:11;;;;;;;2.38;2.28;;;;;;;;;;5073340;28;20211;-86
2021/06/18 14:28:39;;;;;;;2.95;2.80;;;;;;;;;;5073356;28;20220;-86
2021/06/18 14:31:06;;;;;;;3.75;3.45;;;;;;;;;;5073603;28;20710;-85
2021/06/18 14:33:33;;;;;;;3.22;3.03;;;;;;;;;;5073403;28;20643;-86
2021/06/18 14:36:01;;;;;;;3.25;2.92;;;;;;;;;;5074002;28;20266;-85
2021/06/18 14:38:30;;;;;;;2.30;2.20;;;;;;;;;;5073403;28;20690;-86
2021/06/18 14:40:57;;;;;;;2.72;2.53;;;;;;;;;;5073492;28;20208;-86
2021/06/18 14:43:24;;;;;;;3.22;3.03;;;;;;;;;;5073673;28;20207;-87
2021/06/18 14:45:52;;;;;;;3.15;2.95;;;;;;;;;;5073579;28;20184;-86
2021/06/18 14:48:19;;;;;;;3.63;3.42;;;;;;;;;;5073015;28;20583;-86
2021/06/18 14:50:48;;;;;;;3.38;3.08;;;;;;;;;;5073144;28;20196;-86
2021/06/18 14:53:16;;;;;;;2.83;2.72;;;;;;;;;;5074163;28;20200;-86
2021/06/18 14:55:44;;;;;;;2.70;2.50;;;;;;;;;;5073003;28;20207;-87
2021/06/18 14:58:12;;;;;;;2.10;2.00;;;;;;;;;;5073180;28;20188;-86
2021/06/18 15:00:40;;;;;;;2.15;2.05;;;;;;;;;;5073379;28;20193;-86
2021/06/18 15:03:07;;;;;;;2.42;2.33;;;;;;;;;;5073032;28;20209;-87
2021/06/18 15:05:35;;;;;;;2.40;2.20;;;;;;;;;;5073053;28;20207;-86
2021/06/18 15:08:02;;;;;;;1.70;1.60;;;;;;;;;;5072399;28;20201;-86